Airport Name : Al Maktoum Intl

Other Name : Dubai World

ICAO : OMDW

IATA : DWC

FAA :

Latitude : 24.91833

Longitude : 55.17556

Country : United Arab Emirates

Local Date and Time : 7/21/2018 1:14:00 PM

 

TAF (Terminal Aerodrome Forecast)

TAF OMDW 210451Z 2106/2212 24005KT 7000 NSC PROB30 2106/2112 3000 DU BECMG 2108/2110 32014KT PROB30 2114/2117 4000 DU BECMG 2115/2117 08005KT BECMG 2203/2205 18012KT BECMG 2209/2211 33015KT

 

METAR (METeorological Aerodrome Report)

OMDW 210900Z 22006KT 140V250 7000 NSC 44/06 Q0997 BECMG 32013KT

OMDW 210800Z 25005KT 190V320 7000 NSC 42/06 Q0997 BECMG 32013KT

OMDW 210700Z 19003KT 080V250 6000 NSC 41/08 Q0998 NOSIG

OMDW 210600Z 24003KT 140V290 5000 DU NSC 38/13 Q0998 NOSIG